sensor_id;sensor_type;location;lat;lon;timestamp;P1;durP1;ratioP1;P2;durP2;ratioP2
41643;SDS011;44236;48.098;11.582;2023-07-09T05:33:39;8.93;;;3.47;;
41643;SDS011;44236;48.098;11.582;2023-07-09T05:36:05;6.53;;;2.90;;
41643;SDS011;44236;48.098;11.582;2023-07-09T05:38:32;7.25;;;3.70;;
41643;SDS011;44236;48.098;11.582;2023-07-09T05:40:59;7.75;;;3.38;;
41643;SDS011;44236;48.098;11.582;2023-07-09T05:43:26;6.97;;;3.83;;
41643;SDS011;44236;48.098;11.582;2023-07-09T05:45:51;5.43;;;2.88;;
41643;SDS011;44236;48.098;11.582;2023-07-09T05:48:17;6.90;;;3.20;;
41643;SDS011;44236;48.098;11.582;2023-07-09T05:50:42;7.25;;;3.10;;
41643;SDS011;44236;48.098;11.582;2023-07-09T05:53:08;6.22;;;3.08;;
41643;SDS011;44236;48.098;11.582;2023-07-09T05:55:34;5.95;;;3.50;;
41643;SDS011;44236;48.098;11.582;2023-07-09T05:58:00;6.53;;;2.80;;
41643;SDS011;44236;48.098;11.582;2023-07-09T06:00:25;4.95;;;2.42;;
41643;SDS011;44236;48.098;11.582;2023-07-09T06:02:51;5.43;;;3.00;;
41643;SDS011;44236;48.098;11.582;2023-07-09T06:05:16;7.43;;;3.58;;
41643;SDS011;44236;48.098;11.582;2023-07-09T06:07:42;6.10;;;2.72;;
41643;SDS011;44236;48.098;11.582;2023-07-09T06:10:08;6.15;;;3.35;;
41643;SDS011;44236;48.098;11.582;2023-07-09T06:12:34;6.60;;;3.40;;
41643;SDS011;44236;48.098;11.582;2023-07-09T06:15:00;5.53;;;3.20;;
41643;SDS011;44236;48.098;11.582;2023-07-09T06:17:26;7.30;;;3.22;;
41643;SDS011;44236;48.098;11.582;2023-07-09T06:19:51;7.00;;;2.80;;
41643;SDS011;44236;48.098;11.582;2023-07-09T06:22:17;10.30;;;3.15;;
41643;SDS011;44236;48.098;11.582;2023-07-09T06:24:44;8.25;;;3.10;;
41643;SDS011;44236;48.098;11.582;2023-07-09T06:27:10;6.18;;;3.15;;
41643;SDS011;44236;48.098;11.582;2023-07-09T06:29:36;11.15;;;3.10;;
41643;SDS011;44236;48.098;11.582;2023-07-09T06:32:01;10.95;;;2.58;;
41643;SDS011;44236;48.098;11.582;2023-07-09T06:34:27;7.57;;;3.17;;
41643;SDS011;44236;48.098;11.582;2023-07-09T06:36:53;7.07;;;2.65;;
41643;SDS011;44236;48.098;11.582;2023-07-09T06:39:19;9.50;;;2.90;;
41643;SDS011;44236;48.098;11.582;2023-07-09T06:41:44;9.73;;;2.92;;
41643;SDS011;44236;48.098;11.582;2023-07-09T06:44:10;10.57;;;3.05;;
41643;SDS011;44236;48.098;11.582;2023-07-09T06:46:36;6.88;;;2.60;;
41643;SDS011;44236;48.098;11.582;2023-07-09T06:49:02;9.27;;;2.90;;
41643;SDS011;44236;48.098;11.582;2023-07-09T06:51:30;12.85;;;3.70;;
41643;SDS011;44236;48.098;11.582;2023-07-09T06:53:56;7.10;;;3.17;;
41643;SDS011;44236;48.098;11.582;2023-07-09T06:56:22;6.22;;;2.72;;
41643;SDS011;44236;48.098;11.582;2023-07-09T06:58:48;7.13;;;2.67;;
41643;SDS011;44236;48.098;11.582;2023-07-09T07:01:14;4.93;;;2.33;;
41643;SDS011;44236;48.098;11.582;2023-07-09T07:03:40;8.45;;;2.58;;
41643;SDS011;44236;48.098;11.582;2023-07-09T07:06:05;8.75;;;2.88;;
41643;SDS011;44236;48.098;11.582;2023-07-09T07:08:32;8.10;;;3.50;;
41643;SDS011;44236;48.098;11.582;2023-07-09T07:10:59;7.07;;;2.63;;
41643;SDS011;44236;48.098;11.582;2023-07-09T07:13:37;4.63;;;2.60;;
41643;SDS011;44236;48.098;11.582;2023-07-09T07:16:07;6.43;;;3.00;;
41643;SDS011;44236;48.098;11.582;2023-07-09T07:18:35;6.40;;;2.90;;
41643;SDS011;44236;48.098;11.582;2023-07-09T07:21:01;5.28;;;2.55;;
41643;SDS011;44236;48.098;11.582;2023-07-09T07:23:27;5.75;;;2.67;;
41643;SDS011;44236;48.098;11.582;2023-07-09T07:25:53;5.18;;;2.45;;
41643;SDS011;44236;48.098;11.582;2023-07-09T07:28:19;5.97;;;2.97;;
41643;SDS011;44236;48.098;11.582;2023-07-09T07:30:45;11.10;;;3.38;;
41643;SDS011;44236;48.098;11.582;2023-07-09T07:33:12;5.90;;;2.63;;
41643;SDS011;44236;48.098;11.582;2023-07-09T07:35:39;7.65;;;2.95;;
41643;SDS011;44236;48.098;11.582;2023-07-09T07:38:04;10.73;;;2.47;;
41643;SDS011;44236;48.098;11.582;2023-07-09T07:40:30;5.68;;;2.75;;
41643;SDS011;44236;48.098;11.582;2023-07-09T07:42:55;9.77;;;3.13;;
41643;SDS011;44236;48.098;11.582;2023-07-09T07:45:21;7.57;;;3.05;;
41643;SDS011;44236;48.098;11.582;2023-07-09T07:47:47;9.68;;;2.95;;
41643;SDS011;44236;48.098;11.582;2023-07-09T07:50:13;8.00;;;2.90;;
41643;SDS011;44236;48.098;11.582;2023-07-09T07:52:41;10.35;;;3.00;;
41643;SDS011;44236;48.098;11.582;2023-07-09T07:55:07;5.65;;;2.90;;
41643;SDS011;44236;48.098;11.582;2023-07-09T07:57:34;9.20;;;3.08;;
41643;SDS011;44236;48.098;11.582;2023-07-09T07:59:59;11.50;;;3.28;;
41643;SDS011;44236;48.098;11.582;2023-07-09T08:02:26;8.23;;;2.90;;
41643;SDS011;44236;48.098;11.582;2023-07-09T08:04:51;9.13;;;2.97;;
41643;SDS011;44236;48.098;11.582;2023-07-09T08:07:18;5.68;;;3.05;;
41643;SDS011;44236;48.098;11.582;2023-07-09T08:09:44;9.52;;;2.85;;
41643;SDS011;44236;48.098;11.582;2023-07-09T08:12:11;8.70;;;3.05;;
41643;SDS011;44236;48.098;11.582;2023-07-09T08:14:38;6.80;;;2.75;;
41643;SDS011;44236;48.098;11.582;2023-07-09T08:17:05;6.45;;;3.05;;
41643;SDS011;44236;48.098;11.582;2023-07-09T08:19:31;8.45;;;3.25;;
41643;SDS011;44236;48.098;11.582;2023-07-09T08:21:57;5.95;;;2.83;;
41643;SDS011;44236;48.098;11.582;2023-07-09T08:24:23;8.45;;;3.38;;
41643;SDS011;44236;48.098;11.582;2023-07-09T08:26:49;7.47;;;3.55;;
41643;SDS011;44236;48.098;11.582;2023-07-09T08:29:15;5.80;;;2.95;;
41643;SDS011;44236;48.098;11.582;2023-07-09T08:31:41;8.45;;;3.20;;
41643;SDS011;44236;48.098;11.582;2023-07-09T08:34:07;7.05;;;3.42;;
41643;SDS011;44236;48.098;11.582;2023-07-09T08:36:33;7.22;;;2.88;;
41643;SDS011;44236;48.098;11.582;2023-07-09T08:39:00;7.25;;;3.35;;
41643;SDS011;44236;48.098;11.582;2023-07-09T08:49:12;6.50;;;3.00;;
41643;SDS011;44236;48.098;11.582;2023-07-09T08:51:45;9.45;;;3.28;;
41643;SDS011;44236;48.098;11.582;2023-07-09T08:54:14;8.75;;;3.70;;
41643;SDS011;44236;48.098;11.582;2023-07-09T08:56:50;6.22;;;3.03;;
41643;SDS011;44236;48.098;11.582;2023-07-09T08:59:16;9.68;;;3.35;;
41643;SDS011;44236;48.098;11.582;2023-07-09T09:01:46;10.38;;;3.58;;
41643;SDS011;44236;48.098;11.582;2023-07-09T09:04:29;11.27;;;3.03;;
41643;SDS011;44236;48.098;11.582;2023-07-09T09:09:57;9.05;;;3.30;;
41643;SDS011;44236;48.098;11.582;2023-07-09T09:12:27;8.75;;;3.03;;
41643;SDS011;44236;48.098;11.582;2023-07-09T09:15:10;9.25;;;2.80;;
41643;SDS011;44236;48.098;11.582;2023-07-09T09:17:40;8.70;;;2.80;;
41643;SDS011;44236;48.098;11.582;2023-07-09T09:20:08;7.07;;;2.90;;
41643;SDS011;44236;48.098;11.582;2023-07-09T09:22:51;8.98;;;2.38;;
41643;SDS011;44236;48.098;11.582;2023-07-09T09:25:35;5.28;;;2.53;;
41643;SDS011;44236;48.098;11.582;2023-07-09T09:28:07;7.38;;;2.28;;
41643;SDS011;44236;48.098;11.582;2023-07-09T09:30:32;8.05;;;3.17;;
41643;SDS011;44236;48.098;11.582;2023-07-09T09:33:00;7.07;;;2.85;;
41643;SDS011;44236;48.098;11.582;2023-07-09T09:35:37;10.05;;;3.03;;
41643;SDS011;44236;48.098;11.582;2023-07-09T09:38:12;5.20;;;2.55;;
41643;SDS011;44236;48.098;11.582;2023-07-09T09:40:41;8.60;;;2.55;;
41643;SDS011;44236;48.098;11.582;2023-07-09T09:43:13;4.97;;;2.08;;
41643;SDS011;44236;48.098;11.582;2023-07-09T09:45:41;11.13;;;3.45;;
41643;SDS011;44236;48.098;11.582;2023-07-09T09:48:19;5.95;;;3.03;;
41643;SDS011;44236;48.098;11.582;2023-07-09T09:50:51;6.55;;;3.05;;
41643;SDS011;44236;48.098;11.582;2023-07-09T09:53:24;8.63;;;2.83;;
41643;SDS011;44236;48.098;11.582;2023-07-09T09:55:53;8.57;;;3.35;;
41643;SDS011;44236;48.098;11.582;2023-07-09T09:58:20;11.65;;;4.18;;
41643;SDS011;44236;48.098;11.582;2023-07-09T10:03:20;20.63;;;4.63;;
41643;SDS011;44236;48.098;11.582;2023-07-09T10:05:56;23.30;;;5.82;;
41643;SDS011;44236;48.098;11.582;2023-07-09T10:08:44;26.88;;;8.48;;
41643;SDS011;44236;48.098;11.582;2023-07-09T10:14:18;27.75;;;7.25;;
41643;SDS011;44236;48.098;11.582;2023-07-09T10:16:59;23.95;;;7.28;;
41643;SDS011;44236;48.098;11.582;2023-07-09T10:19:44;23.90;;;8.32;;
41643;SDS011;44236;48.098;11.582;2023-07-09T10:22:22;24.08;;;8.23;;
41643;SDS011;44236;48.098;11.582;2023-07-09T10:25:02;34.53;;;9.35;;
41643;SDS011;44236;48.098;11.582;2023-07-09T10:33:12;24.12;;;7.18;;
41643;SDS011;44236;48.098;11.582;2023-07-09T10:35:51;33.35;;;10.05;;
41643;SDS011;44236;48.098;11.582;2023-07-09T10:40:59;26.52;;;8.38;;
41643;SDS011;44236;48.098;11.582;2023-07-09T10:46:16;26.98;;;9.05;;
41643;SDS011;44236;48.098;11.582;2023-07-09T10:48:52;26.25;;;8.80;;
41643;SDS011;44236;48.098;11.582;2023-07-09T10:54:10;28.88;;;9.15;;
41643;SDS011;44236;48.098;11.582;2023-07-09T10:56:37;25.90;;;7.60;;
41643;SDS011;44236;48.098;11.582;2023-07-09T10:59:20;28.98;;;8.07;;
41643;SDS011;44236;48.098;11.582;2023-07-09T11:02:15;26.80;;;8.82;;
41643;SDS011;44236;48.098;11.582;2023-07-09T11:04:44;27.35;;;8.10;;
41643;SDS011;44236;48.098;11.582;2023-07-09T11:07:33;25.13;;;8.15;;
41643;SDS011;44236;48.098;11.582;2023-07-09T11:12:40;28.50;;;7.00;;
41643;SDS011;44236;48.098;11.582;2023-07-09T11:17:40;25.98;;;8.98;;
41643;SDS011;44236;48.098;11.582;2023-07-09T11:22:51;21.38;;;7.80;;
41643;SDS011;44236;48.098;11.582;2023-07-09T11:25:27;21.70;;;7.80;;
41643;SDS011;44236;48.098;11.582;2023-07-09T11:28:01;24.85;;;8.48;;
41643;SDS011;44236;48.098;11.582;2023-07-09T11:30:31;23.88;;;8.10;;
41643;SDS011;44236;48.098;11.582;2023-07-09T11:33:01;22.63;;;8.63;;
41643;SDS011;44236;48.098;11.582;2023-07-09T11:35:42;23.10;;;8.20;;
41643;SDS011;44236;48.098;11.582;2023-07-09T11:38:15;18.80;;;6.28;;
41643;SDS011;44236;48.098;11.582;2023-07-09T11:40:47;25.90;;;7.43;;
41643;SDS011;44236;48.098;11.582;2023-07-09T11:43:33;23.27;;;8.07;;
41643;SDS011;44236;48.098;11.582;2023-07-09T11:48:39;15.05;;;6.40;;
41643;SDS011;44236;48.098;11.582;2023-07-09T11:51:16;23.38;;;6.97;;
41643;SDS011;44236;48.098;11.582;2023-07-09T11:53:46;20.67;;;6.35;;
41643;SDS011;44236;48.098;11.582;2023-07-09T11:56:19;18.75;;;7.18;;
41643;SDS011;44236;48.098;11.582;2023-07-09T11:58:50;20.23;;;6.60;;
41643;SDS011;44236;48.098;11.582;2023-07-09T12:01:27;22.48;;;6.63;;
41643;SDS011;44236;48.098;11.582;2023-07-09T12:04:01;18.35;;;6.63;;
41643;SDS011;44236;48.098;11.582;2023-07-09T12:06:30;16.70;;;6.13;;
41643;SDS011;44236;48.098;11.582;2023-07-09T12:08:58;15.65;;;5.95;;
41643;SDS011;44236;48.098;11.582;2023-07-09T12:11:25;13.63;;;5.53;;
41643;SDS011;44236;48.098;11.582;2023-07-09T12:14:17;19.88;;;5.88;;
41643;SDS011;44236;48.098;11.582;2023-07-09T12:16:46;14.85;;;5.50;;
41643;SDS011;44236;48.098;11.582;2023-07-09T12:19:31;16.10;;;6.07;;
41643;SDS011;44236;48.098;11.582;2023-07-09T12:21:58;13.77;;;5.18;;
41643;SDS011;44236;48.098;11.582;2023-07-09T12:24:25;13.73;;;5.10;;
41643;SDS011;44236;48.098;11.582;2023-07-09T12:26:53;17.27;;;5.45;;
41643;SDS011;44236;48.098;11.582;2023-07-09T12:29:19;15.98;;;5.60;;
41643;SDS011;44236;48.098;11.582;2023-07-09T12:31:48;15.05;;;5.63;;
41643;SDS011;44236;48.098;11.582;2023-07-09T12:34:14;13.40;;;5.20;;
41643;SDS011;44236;48.098;11.582;2023-07-09T12:36:44;13.57;;;5.03;;
41643;SDS011;44236;48.098;11.582;2023-07-09T12:39:13;14.88;;;5.43;;
41643;SDS011;44236;48.098;11.582;2023-07-09T12:41:42;10.82;;;4.80;;
41643;SDS011;44236;48.098;11.582;2023-07-09T12:44:16;16.90;;;5.63;;
41643;SDS011;44236;48.098;11.582;2023-07-09T12:46:44;9.88;;;4.25;;
41643;SDS011;44236;48.098;11.582;2023-07-09T12:49:30;12.20;;;4.78;;
41643;SDS011;44236;48.098;11.582;2023-07-09T12:52:03;10.70;;;4.50;;
41643;SDS011;44236;48.098;11.582;2023-07-09T12:54:36;12.25;;;4.35;;
41643;SDS011;44236;48.098;11.582;2023-07-09T12:57:03;7.57;;;3.72;;
41643;SDS011;44236;48.098;11.582;2023-07-09T12:59:40;11.77;;;4.63;;
41643;SDS011;44236;48.098;11.582;2023-07-09T13:04:48;11.57;;;4.47;;
41643;SDS011;44236;48.098;11.582;2023-07-09T13:09:53;9.13;;;3.63;;
41643;SDS011;44236;48.098;11.582;2023-07-09T13:12:20;10.63;;;4.18;;
41643;SDS011;44236;48.098;11.582;2023-07-09T13:14:53;10.48;;;4.30;;
41643;SDS011;44236;48.098;11.582;2023-07-09T13:17:19;10.18;;;4.05;;
41643;SDS011;44236;48.098;11.582;2023-07-09T13:19:45;11.55;;;3.85;;
41643;SDS011;44236;48.098;11.582;2023-07-09T13:22:15;7.97;;;3.80;;
41643;SDS011;44236;48.098;11.582;2023-07-09T13:24:42;10.77;;;3.92;;
41643;SDS011;44236;48.098;11.582;2023-07-09T13:27:14;7.55;;;3.55;;
41643;SDS011;44236;48.098;11.582;2023-07-09T13:29:40;8.50;;;3.53;;
41643;SDS011;44236;48.098;11.582;2023-07-09T13:32:12;10.63;;;3.55;;
41643;SDS011;44236;48.098;11.582;2023-07-09T13:34:39;6.85;;;3.05;;
41643;SDS011;44236;48.098;11.582;2023-07-09T13:37:09;11.07;;;3.60;;
41643;SDS011;44236;48.098;11.582;2023-07-09T13:39:37;8.27;;;3.45;;
41643;SDS011;44236;48.098;11.582;2023-07-09T13:42:04;7.72;;;3.50;;
41643;SDS011;44236;48.098;11.582;2023-07-09T13:44:33;7.70;;;3.30;;
41643;SDS011;44236;48.098;11.582;2023-07-09T13:47:01;8.85;;;3.60;;
41643;SDS011;44236;48.098;11.582;2023-07-09T13:49:27;10.32;;;3.53;;
41643;SDS011;44236;48.098;11.582;2023-07-09T13:51:54;6.78;;;2.63;;
41643;SDS011;44236;48.098;11.582;2023-07-09T13:54:23;8.38;;;2.70;;
41643;SDS011;44236;48.098;11.582;2023-07-09T13:57:00;7.00;;;3.00;;
41643;SDS011;44236;48.098;11.582;2023-07-09T13:59:26;6.70;;;3.17;;
41643;SDS011;44236;48.098;11.582;2023-07-09T14:01:54;7.32;;;3.13;;
41643;SDS011;44236;48.098;11.582;2023-07-09T14:04:21;5.50;;;2.95;;
41643;SDS011;44236;48.098;11.582;2023-07-09T14:06:47;7.82;;;3.28;;
41643;SDS011;44236;48.098;11.582;2023-07-09T14:09:14;5.55;;;2.45;;
41643;SDS011;44236;48.098;11.582;2023-07-09T14:14:20;6.20;;;2.88;;
41643;SDS011;44236;48.098;11.582;2023-07-09T14:16:55;6.32;;;2.85;;
41643;SDS011;44236;48.098;11.582;2023-07-09T14:19:22;7.38;;;2.97;;
41643;SDS011;44236;48.098;11.582;2023-07-09T14:21:48;6.80;;;3.40;;
41643;SDS011;44236;48.098;11.582;2023-07-09T14:24:25;5.15;;;2.30;;
41643;SDS011;44236;48.098;11.582;2023-07-09T14:26:53;5.63;;;2.53;;
41643;SDS011;44236;48.098;11.582;2023-07-09T14:29:21;6.45;;;2.75;;
41643;SDS011;44236;48.098;11.582;2023-07-09T14:31:47;8.43;;;3.30;;
41643;SDS011;44236;48.098;11.582;2023-07-09T14:36:48;4.72;;;2.20;;
41643;SDS011;44236;48.098;11.582;2023-07-09T14:39:18;6.80;;;2.63;;
41643;SDS011;44236;48.098;11.582;2023-07-09T14:41:44;6.72;;;2.83;;
41643;SDS011;44236;48.098;11.582;2023-07-09T14:44:31;5.13;;;2.38;;
41643;SDS011;44236;48.098;11.582;2023-07-09T14:46:59;5.85;;;2.88;;
41643;SDS011;44236;48.098;11.582;2023-07-09T14:49:26;5.82;;;2.60;;
41643;SDS011;44236;48.098;11.582;2023-07-09T14:51:52;5.00;;;2.13;;
41643;SDS011;44236;48.098;11.582;2023-07-09T14:54:28;6.97;;;2.88;;
41643;SDS011;44236;48.098;11.582;2023-07-09T14:56:55;6.85;;;2.60;;
41643;SDS011;44236;48.098;11.582;2023-07-09T14:59:22;5.78;;;2.30;;
41643;SDS011;44236;48.098;11.582;2023-07-09T15:01:49;4.70;;;2.25;;
41643;SDS011;44236;48.098;11.582;2023-07-09T15:06:47;6.00;;;2.33;;
41643;SDS011;44236;48.098;11.582;2023-07-09T15:09:13;6.93;;;2.58;;
41643;SDS011;44236;48.098;11.582;2023-07-09T15:11:40;5.72;;;3.00;;
41643;SDS011;44236;48.098;11.582;2023-07-09T15:14:10;3.90;;;2.22;;
41643;SDS011;44236;48.098;11.582;2023-07-09T15:16:36;4.57;;;2.63;;
41643;SDS011;44236;48.098;11.582;2023-07-09T15:19:11;4.60;;;2.22;;
41643;SDS011;44236;48.098;11.582;2023-07-09T15:21:41;5.13;;;2.33;;
41643;SDS011;44236;48.098;11.582;2023-07-09T15:26:54;5.35;;;2.45;;
41643;SDS011;44236;48.098;11.582;2023-07-09T15:29:21;5.35;;;2.17;;
41643;SDS011;44236;48.098;11.582;2023-07-09T15:31:48;6.25;;;2.50;;
41643;SDS011;44236;48.098;11.582;2023-07-09T15:34:13;5.47;;;2.58;;
41643;SDS011;44236;48.098;11.582;2023-07-09T15:36:47;5.05;;;2.05;;
41643;SDS011;44236;48.098;11.582;2023-07-09T15:39:14;4.70;;;2.13;;
41643;SDS011;44236;48.098;11.582;2023-07-09T15:41:40;6.07;;;2.58;;
41643;SDS011;44236;48.098;11.582;2023-07-09T15:44:10;7.15;;;2.90;;
41643;SDS011;44236;48.098;11.582;2023-07-09T15:46:36;6.38;;;2.97;;
41643;SDS011;44236;48.098;11.582;2023-07-09T15:49:05;5.93;;;2.40;;
41643;SDS011;44236;48.098;11.582;2023-07-09T15:51:31;5.60;;;2.70;;
41643;SDS011;44236;48.098;11.582;2023-07-09T15:53:57;5.28;;;2.17;;
41643;SDS011;44236;48.098;11.582;2023-07-09T15:56:26;9.00;;;2.42;;
41643;SDS011;44236;48.098;11.582;2023-07-09T15:58:55;5.43;;;2.13;;
41643;SDS011;44236;48.098;11.582;2023-07-09T16:01:22;5.53;;;2.80;;
41643;SDS011;44236;48.098;11.582;2023-07-09T16:03:49;7.50;;;3.10;;
41643;SDS011;44236;48.098;11.582;2023-07-09T16:06:16;6.38;;;3.10;;
41643;SDS011;44236;48.098;11.582;2023-07-09T16:08:43;12.35;;;3.28;;
41643;SDS011;44236;48.098;11.582;2023-07-09T16:11:19;7.22;;;2.95;;
41643;SDS011;44236;48.098;11.582;2023-07-09T16:13:47;8.85;;;3.63;;
41643;SDS011;44236;48.098;11.582;2023-07-09T16:16:16;13.93;;;3.50;;
41643;SDS011;44236;48.098;11.582;2023-07-09T16:18:46;7.32;;;3.78;;
41643;SDS011;44236;48.098;11.582;2023-07-09T16:23:52;9.68;;;3.65;;
41643;SDS011;44236;48.098;11.582;2023-07-09T16:26:19;9.48;;;3.60;;
41643;SDS011;44236;48.098;11.582;2023-07-09T16:28:46;9.75;;;3.55;;
41643;SDS011;44236;48.098;11.582;2023-07-09T16:31:12;6.45;;;3.55;;
41643;SDS011;44236;48.098;11.582;2023-07-09T16:33:38;7.85;;;3.80;;
41643;SDS011;44236;48.098;11.582;2023-07-09T16:36:04;5.75;;;3.00;;
41643;SDS011;44236;48.098;11.582;2023-07-09T16:38:33;8.05;;;3.55;;
41643;SDS011;44236;48.098;11.582;2023-07-09T16:41:00;7.50;;;3.22;;
41643;SDS011;44236;48.098;11.582;2023-07-09T16:43:26;8.93;;;2.90;;
41643;SDS011;44236;48.098;11.582;2023-07-09T16:45:51;8.30;;;3.42;;
41643;SDS011;44236;48.098;11.582;2023-07-09T16:48:18;5.93;;;3.42;;
41643;SDS011;44236;48.098;11.582;2023-07-09T16:50:46;9.27;;;3.25;;
41643;SDS011;44236;48.098;11.582;2023-07-09T16:53:13;6.13;;;3.33;;
41643;SDS011;44236;48.098;11.582;2023-07-09T16:55:40;8.15;;;3.22;;
41643;SDS011;44236;48.098;11.582;2023-07-09T16:58:07;8.10;;;3.35;;
41643;SDS011;44236;48.098;11.582;2023-07-09T17:00:49;9.57;;;2.70;;
41643;SDS011;44236;48.098;11.582;2023-07-09T17:03:14;7.20;;;3.10;;
41643;SDS011;44236;48.098;11.582;2023-07-09T17:05:40;5.88;;;3.15;;
41643;SDS011;44236;48.098;11.582;2023-07-09T17:08:06;8.82;;;3.15;;
41643;SDS011;44236;48.098;11.582;2023-07-09T17:10:31;8.77;;;3.78;;
41643;SDS011;44236;48.098;11.582;2023-07-09T17:12:58;7.43;;;3.38;;
41643;SDS011;44236;48.098;11.582;2023-07-09T17:15:29;7.47;;;2.70;;
41643;SDS011;44236;48.098;11.582;2023-07-09T17:17:57;8.07;;;3.30;;
41643;SDS011;44236;48.098;11.582;2023-07-09T17:20:27;10.85;;;2.80;;
41643;SDS011;44236;48.098;11.582;2023-07-09T17:22:55;8.77;;;3.67;;
41643;SDS011;44236;48.098;11.582;2023-07-09T17:25:32;12.20;;;8.55;;
41643;SDS011;44236;48.098;11.582;2023-07-09T17:28:02;33.03;;;27.40;;
41643;SDS011;44236;48.098;11.582;2023-07-09T17:30:41;37.05;;;28.08;;
41643;SDS011;44236;48.098;11.582;2023-07-09T17:33:07;35.88;;;24.23;;
41643;SDS011;44236;48.098;11.582;2023-07-09T17:35:34;43.63;;;34.92;;
41643;SDS011;44236;48.098;11.582;2023-07-09T17:38:00;67.65;;;48.60;;
41643;SDS011;44236;48.098;11.582;2023-07-09T17:40:27;53.70;;;41.25;;
41643;SDS011;44236;48.098;11.582;2023-07-09T17:42:56;65.05;;;40.85;;
41643;SDS011;44236;48.098;11.582;2023-07-09T17:45:22;62.83;;;46.70;;
41643;SDS011;44236;48.098;11.582;2023-07-09T17:47:49;50.80;;;37.95;;
41643;SDS011;44236;48.098;11.582;2023-07-09T17:50:25;45.70;;;35.33;;
41643;SDS011;44236;48.098;11.582;2023-07-09T17:52:54;31.95;;;26.20;;
41643;SDS011;44236;48.098;11.582;2023-07-09T17:55:20;31.02;;;20.23;;
41643;SDS011;44236;48.098;11.582;2023-07-09T17:57:50;21.20;;;12.35;;
41643;SDS011;44236;48.098;11.582;2023-07-09T18:00:20;12.45;;;8.30;;
41643;SDS011;44236;48.098;11.582;2023-07-09T18:02:54;12.05;;;7.80;;
41643;SDS011;44236;48.098;11.582;2023-07-09T18:05:25;9.35;;;4.78;;
41643;SDS011;44236;48.098;11.582;2023-07-09T18:10:24;12.68;;;4.57;;
41643;SDS011;44236;48.098;11.582;2023-07-09T18:12:51;10.95;;;3.30;;
41643;SDS011;44236;48.098;11.582;2023-07-09T18:15:25;8.77;;;3.50;;
41643;SDS011;44236;48.098;11.582;2023-07-09T18:17:51;7.32;;;3.13;;
41643;SDS011;44236;48.098;11.582;2023-07-09T18:20:19;8.52;;;3.83;;
41643;SDS011;44236;48.098;11.582;2023-07-09T18:22:47;5.43;;;2.53;;
41643;SDS011;44236;48.098;11.582;2023-07-09T18:25:12;8.50;;;3.55;;
41643;SDS011;44236;48.098;11.582;2023-07-09T18:27:39;9.23;;;3.60;;
41643;SDS011;44236;48.098;11.582;2023-07-09T18:30:15;7.78;;;4.03;;
41643;SDS011;44236;48.098;11.582;2023-07-09T18:32:46;7.05;;;3.55;;
41643;SDS011;44236;48.098;11.582;2023-07-09T18:38:03;7.90;;;3.63;;
41643;SDS011;44236;48.098;11.582;2023-07-09T18:40:39;8.57;;;2.97;;
41643;SDS011;44236;48.098;11.582;2023-07-09T18:43:10;13.15;;;3.47;;
41643;SDS011;44236;48.098;11.582;2023-07-09T18:45:37;9.38;;;3.78;;
41643;SDS011;44236;48.098;11.582;2023-07-09T18:48:13;8.90;;;3.67;;
41643;SDS011;44236;48.098;11.582;2023-07-09T18:50:40;5.22;;;3.05;;
41643;SDS011;44236;48.098;11.582;2023-07-09T18:53:07;9.02;;;3.60;;
41643;SDS011;44236;48.098;11.582;2023-07-09T18:55:36;10.68;;;3.35;;
41643;SDS011;44236;48.098;11.582;2023-07-09T18:58:05;9.38;;;3.58;;
41643;SDS011;44236;48.098;11.582;2023-07-09T19:00:39;8.35;;;3.47;;
41643;SDS011;44236;48.098;11.582;2023-07-09T19:03:04;8.70;;;4.00;;
41643;SDS011;44236;48.098;11.582;2023-07-09T19:05:30;5.57;;;2.80;;
41643;SDS011;44236;48.098;11.582;2023-07-09T19:07:56;7.10;;;3.40;;
41643;SDS011;44236;48.098;11.582;2023-07-09T19:10:23;11.23;;;3.55;;
41643;SDS011;44236;48.098;11.582;2023-07-09T19:12:53;8.73;;;3.50;;
41643;SDS011;44236;48.098;11.582;2023-07-09T19:15:23;7.32;;;3.25;;
41643;SDS011;44236;48.098;11.582;2023-07-09T19:17:49;6.68;;;3.45;;
41643;SDS011;44236;48.098;11.582;2023-07-09T19:20:17;9.20;;;3.05;;
41643;SDS011;44236;48.098;11.582;2023-07-09T19:22:44;8.38;;;3.28;;
41643;SDS011;44236;48.098;11.582;2023-07-09T19:25:12;8.90;;;3.42;;
41643;SDS011;44236;48.098;11.582;2023-07-09T19:27:42;10.60;;;3.42;;
41643;SDS011;44236;48.098;11.582;2023-07-09T19:30:08;9.20;;;3.50;;
41643;SDS011;44236;48.098;11.582;2023-07-09T19:32:35;8.23;;;3.35;;
41643;SDS011;44236;48.098;11.582;2023-07-09T19:35:01;7.03;;;3.13;;
41643;SDS011;44236;48.098;11.582;2023-07-09T19:37:28;10.38;;;3.58;;
41643;SDS011;44236;48.098;11.582;2023-07-09T19:39:54;12.48;;;3.65;;
41643;SDS011;44236;48.098;11.582;2023-07-09T19:42:21;8.73;;;3.45;;
41643;SDS011;44236;48.098;11.582;2023-07-09T19:44:49;7.80;;;3.75;;
41643;SDS011;44236;48.098;11.582;2023-07-09T19:47:25;7.57;;;3.10;;
41643;SDS011;44236;48.098;11.582;2023-07-09T19:49:56;9.70;;;3.70;;
41643;SDS011;44236;48.098;11.582;2023-07-09T19:52:23;5.50;;;2.80;;
41643;SDS011;44236;48.098;11.582;2023-07-09T19:54:49;7.18;;;3.47;;
41643;SDS011;44236;48.098;11.582;2023-07-09T19:57:15;7.43;;;3.60;;
41643;SDS011;44236;48.098;11.582;2023-07-09T19:59:41;8.27;;;3.88;;
41643;SDS011;44236;48.098;11.582;2023-07-09T20:02:20;8.02;;;3.28;;
41643;SDS011;44236;48.098;11.582;2023-07-09T20:04:49;7.82;;;3.80;;
41643;SDS011;44236;48.098;11.582;2023-07-09T20:07:16;8.20;;;2.97;;
41643;SDS011;44236;48.098;11.582;2023-07-09T20:09:41;10.68;;;4.07;;
41643;SDS011;44236;48.098;11.582;2023-07-09T20:12:12;4.75;;;2.60;;
41643;SDS011;44236;48.098;11.582;2023-07-09T20:14:47;8.82;;;3.50;;
41643;SDS011;44236;48.098;11.582;2023-07-09T20:17:14;8.88;;;3.13;;
41643;SDS011;44236;48.098;11.582;2023-07-09T20:19:40;6.13;;;3.10;;
41643;SDS011;44236;48.098;11.582;2023-07-09T20:22:22;10.00;;;3.45;;
41643;SDS011;44236;48.098;11.582;2023-07-09T20:24:49;9.13;;;3.17;;
41643;SDS011;44236;48.098;11.582;2023-07-09T20:27:15;8.13;;;4.15;;
41643;SDS011;44236;48.098;11.582;2023-07-09T20:29:43;7.47;;;3.72;;
41643;SDS011;44236;48.098;11.582;2023-07-09T20:32:14;6.82;;;3.47;;
41643;SDS011;44236;48.098;11.582;2023-07-09T20:34:42;12.35;;;3.83;;
41643;SDS011;44236;48.098;11.582;2023-07-09T20:37:09;9.88;;;3.65;;
41643;SDS011;44236;48.098;11.582;2023-07-09T20:39:36;14.85;;;3.97;;
41643;SDS011;44236;48.098;11.582;2023-07-09T20:42:11;9.80;;;3.60;;
41643;SDS011;44236;48.098;11.582;2023-07-09T20:44:39;8.55;;;3.35;;
41643;SDS011;44236;48.098;11.582;2023-07-09T20:47:18;7.78;;;3.10;;
41643;SDS011;44236;48.098;11.582;2023-07-09T20:49:45;7.15;;;3.28;;
41643;SDS011;44236;48.098;11.582;2023-07-09T20:52:11;6.45;;;3.55;;
41643;SDS011;44236;48.098;11.582;2023-07-09T20:54:38;7.60;;;3.38;;
41643;SDS011;44236;48.098;11.582;2023-07-09T20:57:09;7.00;;;3.45;;
41643;SDS011;44236;48.098;11.582;2023-07-09T20:59:42;8.43;;;2.83;;
41643;SDS011;44236;48.098;11.582;2023-07-09T21:02:14;5.15;;;3.25;;
41643;SDS011;44236;48.098;11.582;2023-07-09T21:04:46;8.73;;;3.58;;
41643;SDS011;44236;48.098;11.582;2023-07-09T21:07:12;6.28;;;3.40;;
41643;SDS011;44236;48.098;11.582;2023-07-09T21:09:37;8.35;;;3.40;;
41643;SDS011;44236;48.098;11.582;2023-07-09T21:12:07;10.35;;;3.53;;
41643;SDS011;44236;48.098;11.582;2023-07-09T21:14:38;7.13;;;3.45;;
41643;SDS011;44236;48.098;11.582;2023-07-09T21:17:04;6.88;;;2.97;;
41643;SDS011;44236;48.098;11.582;2023-07-09T21:21:57;10.40;;;3.67;;